Darmstadt, Indiana
Current Conditions -  °F | °C
As of 1:54 AM on Friday 28 Nov 2014 (Local Time) from KEVV Reporting Station
Clear Clear  
Wind Chill: 25°   Ceiling: Unl
Heat Index: 25°   Visibility: 8mi
Dew Point: 20°   Wind: 3mph
Humidity: 81%   Direction: 230°SW
Pressure: 30.45"   Gusts: NA
Location:  38.1195°N, 87.5368°W
Report Text: KEVV 280754Z AUTO 23003KT 8SM CLR M04/M07 A3045 RMK AO2 SLP318 T10391067
Loading
Personal Weather Stations






























Interactive Weather Map New forecast layout! Learn more

10-Day Weather Forecast

Advertisements
Track Severe Weather on mobile